createdAt,value
2017-09-03T00:02:12.028Z,85.62
2017-09-03T00:04:41.109Z,85.36
2017-09-03T00:07:10.208Z,85.78
2017-09-03T00:09:39.308Z,85.64
2017-09-03T00:12:08.365Z,85.60
2017-09-03T00:14:37.458Z,85.73
2017-09-03T00:17:06.516Z,85.54
2017-09-03T00:19:35.556Z,85.55
2017-09-03T00:22:04.697Z,85.56
2017-09-03T00:24:33.786Z,85.59
2017-09-03T00:27:02.892Z,85.73
2017-09-03T00:29:31.982Z,85.63
2017-09-03T00:32:01.373Z,85.78
2017-09-03T00:34:30.462Z,85.61
2017-09-03T00:36:59.518Z,85.48
2017-09-03T00:39:28.567Z,85.37
2017-09-03T00:41:57.636Z,85.42
2017-09-03T00:44:26.693Z,85.55
2017-09-03T00:46:55.765Z,85.54
2017-09-03T00:49:24.830Z,85.96
2017-09-03T00:51:53.927Z,85.92
2017-09-03T00:54:22.983Z,85.94
2017-09-03T00:56:52.049Z,85.80
2017-09-03T00:59:21.131Z,86.11
2017-09-03T01:01:50.565Z,86.04
2017-09-03T01:04:19.648Z,86.18
2017-09-03T01:06:48.724Z,86.27
2017-09-03T01:09:17.834Z,86.46
2017-09-03T01:11:46.904Z,86.49
2017-09-03T01:14:16.041Z,86.57
2017-09-03T01:16:45.130Z,86.46
2017-09-03T01:19:14.244Z,86.42
2017-09-03T01:21:43.302Z,86.27
2017-09-03T01:24:12.357Z,86.18
2017-09-03T01:26:41.475Z,86.34
2017-09-03T01:29:10.526Z,86.28
2017-09-03T01:31:39.618Z,86.34
2017-09-03T01:34:08.678Z,86.38
2017-09-03T01:36:37.761Z,86.50
2017-09-03T01:39:06.881Z,86.59
2017-09-03T01:41:36.001Z,86.78
2017-09-03T01:44:05.053Z,86.74
2017-09-03T01:46:34.252Z,86.75
2017-09-03T01:49:03.397Z,86.80
2017-09-03T01:51:32.449Z,86.79
2017-09-03T01:54:01.540Z,86.93
2017-09-03T01:56:30.591Z,86.83
2017-09-03T01:58:59.643Z,86.80
2017-09-03T02:01:28.728Z,86.62
2017-09-03T02:03:57.929Z,86.73
2017-09-03T02:06:27.026Z,86.93
2017-09-03T02:08:56.079Z,87.00
2017-09-03T02:11:25.177Z,87.24
2017-09-03T02:13:54.242Z,87.37
2017-09-03T02:16:23.316Z,87.27
2017-09-03T02:18:52.359Z,87.24
2017-09-03T02:21:21.420Z,87.18
2017-09-03T02:23:50.505Z,86.82
2017-09-03T02:26:19.560Z,86.73
2017-09-03T02:28:48.638Z,86.66
2017-09-03T02:31:17.752Z,86.79
2017-09-03T02:33:46.802Z,86.90
2017-09-03T02:36:15.857Z,86.94
2017-09-03T02:38:44.944Z,87.08
2017-09-03T02:41:13.997Z,86.97
2017-09-03T02:43:43.062Z,86.91
2017-09-03T02:46:12.140Z,86.87
2017-09-03T02:48:41.439Z,87.34
2017-09-03T02:51:10.588Z,87.19
2017-09-03T02:53:39.631Z,87.63
2017-09-03T02:56:09.270Z,87.39
2017-09-03T02:58:38.325Z,87.18
2017-09-03T03:01:07.466Z,87.41
2017-09-03T03:03:36.501Z,87.50
2017-09-03T03:06:05.656Z,87.47
2017-09-03T03:08:34.756Z,87.14
2017-09-03T03:11:03.860Z,87.13
2017-09-03T03:13:32.968Z,87.25
2017-09-03T03:16:02.047Z,87.33
2017-09-03T03:18:31.132Z,86.91
2017-09-03T03:21:00.251Z,86.95
2017-09-03T03:23:29.344Z,86.94
2017-09-03T03:25:58.421Z,86.80
2017-09-03T03:28:27.496Z,86.99
2017-09-03T03:30:57.469Z,87.12
2017-09-03T03:33:26.532Z,87.44
2017-09-03T03:35:55.678Z,87.52
2017-09-03T03:38:24.783Z,87.39
2017-09-03T03:40:53.837Z,87.45
2017-09-03T03:43:22.910Z,87.58
2017-09-03T03:45:52.005Z,87.57
2017-09-03T03:48:21.090Z,87.75
2017-09-03T03:50:50.260Z,87.53
2017-09-03T03:53:19.328Z,87.44
2017-09-03T03:55:48.408Z,87.15
2017-09-03T03:58:17.459Z,87.11
2017-09-03T04:00:46.521Z,87.17
2017-09-03T04:03:15.584Z,87.20
2017-09-03T04:05:44.644Z,87.19
2017-09-03T04:08:13.730Z,87.10
2017-09-03T04:10:42.788Z,87.36
2017-09-03T04:13:11.868Z,87.38
2017-09-03T04:15:40.935Z,87.07
2017-09-03T04:18:10.344Z,86.90
2017-09-03T04:20:39.398Z,86.98
2017-09-03T04:23:08.457Z,86.86
2017-09-03T04:25:37.852Z,86.91
2017-09-03T04:28:07.238Z,87.08
2017-09-03T04:30:36.487Z,87.10
2017-09-03T04:33:05.584Z,87.30
2017-09-03T04:35:34.647Z,87.23
2017-09-03T04:38:03.746Z,87.22
2017-09-03T04:40:33.018Z,87.15
2017-09-03T04:43:02.110Z,87.17
2017-09-03T04:45:31.170Z,87.10
2017-09-03T04:48:00.219Z,87.34
2017-09-03T04:50:29.316Z,87.50
2017-09-03T04:52:58.401Z,87.34
2017-09-03T04:55:27.502Z,87.56
2017-09-03T04:57:56.632Z,87.22
2017-09-03T05:00:25.689Z,87.42
2017-09-03T05:02:54.772Z,87.32
2017-09-03T05:05:23.845Z,87.54
2017-09-03T05:07:52.893Z,87.60
2017-09-03T05:10:21.960Z,87.87
2017-09-03T05:12:51.337Z,87.87
2017-09-03T05:15:20.453Z,87.90
2017-09-03T05:17:49.500Z,87.59
2017-09-03T05:20:18.539Z,87.82
2017-09-03T05:22:48.627Z,87.82
2017-09-03T05:25:17.732Z,87.79
2017-09-03T05:27:46.768Z,87.65
2017-09-03T05:30:16.582Z,87.68
2017-09-03T05:32:45.692Z,87.57
2017-09-03T05:35:14.767Z,87.78
2017-09-03T05:37:43.835Z,87.33
2017-09-03T05:40:12.978Z,87.18
2017-09-03T05:42:42.091Z,86.92
2017-09-03T05:45:11.169Z,86.73
2017-09-03T05:47:40.453Z,86.84
2017-09-03T05:50:10.320Z,87.14
2017-09-03T05:52:39.401Z,87.14
2017-09-03T05:55:08.497Z,87.10
2017-09-03T05:57:37.576Z,86.99
2017-09-03T06:00:06.660Z,86.97
2017-09-03T06:02:36.044Z,86.92
2017-09-03T06:05:05.144Z,87.07
2017-09-03T06:07:34.390Z,86.86
2017-09-03T06:10:03.451Z,87.11
2017-09-03T06:12:32.492Z,86.72
2017-09-03T06:15:01.570Z,86.78
2017-09-03T06:17:30.660Z,86.96
2017-09-03T06:19:59.727Z,86.80
2017-09-03T06:22:29.550Z,86.84
2017-09-03T06:24:58.901Z,86.59
2017-09-03T06:27:27.969Z,86.57
2017-09-03T06:29:57.044Z,86.56
2017-09-03T06:32:26.181Z,86.29
2017-09-03T06:34:55.353Z,86.05
2017-09-03T06:37:24.433Z,86.33
2017-09-03T06:39:54.275Z,86.58
2017-09-03T06:42:23.375Z,86.15
2017-09-03T06:44:52.476Z,86.06
2017-09-03T06:47:21.548Z,85.71
2017-09-03T06:49:50.637Z,85.55
2017-09-03T06:52:19.748Z,85.24
2017-09-03T06:54:48.832Z,84.96
2017-09-03T06:57:17.897Z,84.80
2017-09-03T06:59:46.976Z,84.69
2017-09-03T07:02:16.068Z,84.25
2017-09-03T07:04:45.404Z,83.50
2017-09-03T07:07:15.280Z,83.27
2017-09-03T07:09:44.368Z,82.72
2017-09-03T07:12:13.499Z,82.31
2017-09-03T07:14:42.632Z,81.90
2017-09-03T07:17:11.757Z,82.15
2017-09-03T07:19:40.810Z,82.23
2017-09-03T07:22:09.890Z,82.34
2017-09-03T07:24:38.962Z,81.78
2017-09-03T07:27:08.044Z,82.31
2017-09-03T07:29:37.189Z,81.51
2017-09-03T07:32:06.302Z,81.21
2017-09-03T07:34:35.378Z,80.54
2017-09-03T07:37:05.481Z,80.35
2017-09-03T07:39:35.467Z,79.97
2017-09-03T07:42:04.592Z,79.67
2017-09-03T07:44:34.427Z,79.19
2017-09-03T07:47:03.519Z,78.71
2017-09-03T07:49:33.002Z,78.64
2017-09-03T07:52:02.612Z,77.46
2017-09-03T07:54:31.683Z,77.97
2017-09-03T07:57:01.119Z,77.98
2017-09-03T07:59:30.175Z,77.39
2017-09-03T08:01:59.228Z,77.23
2017-09-03T08:04:28.324Z,76.41
2017-09-03T08:06:57.464Z,76.63
2017-09-03T08:09:26.539Z,76.11
2017-09-03T08:11:55.625Z,76.55
2017-09-03T08:14:24.736Z,76.43
2017-09-03T08:16:53.846Z,75.92
2017-09-03T08:19:22.909Z,75.45
2017-09-03T08:21:52.344Z,75.40
2017-09-03T08:24:22.279Z,74.85
2017-09-03T08:26:52.390Z,74.75
2017-09-03T08:29:21.707Z,73.16
2017-09-03T08:31:51.598Z,72.88
2017-09-03T08:34:20.711Z,72.27
2017-09-03T08:36:50.064Z,69.20
2017-09-03T08:39:19.122Z,69.08
2017-09-03T08:41:48.244Z,70.53
2017-09-03T08:44:17.368Z,70.21
2017-09-03T08:46:46.460Z,69.08
2017-09-03T09:08:28.932Z,63.16
2017-09-03T09:10:58.029Z,62.74
2017-09-03T09:13:27.113Z,62.44
2017-09-03T09:15:56.230Z,64.35
2017-09-03T09:18:25.309Z,66.01
2017-09-03T09:20:54.366Z,64.25
2017-09-03T09:23:23.465Z,64.44
2017-09-03T09:25:52.563Z,63.14
2017-09-03T09:28:21.717Z,61.74
2017-09-03T09:30:50.996Z,63.48
2017-09-03T09:33:20.092Z,61.59
2017-09-03T09:35:49.184Z,63.25
2017-09-03T09:38:18.267Z,57.76
2017-09-03T09:40:47.345Z,60.81
2017-09-03T09:43:16.407Z,57.84
2017-09-03T09:45:45.780Z,58.42
2017-09-03T09:48:14.819Z,60.93
2017-09-03T09:50:43.886Z,59.74
2017-09-03T09:53:12.968Z,56.01
2017-09-03T09:55:42.077Z,57.58
2017-09-03T09:58:11.228Z,56.78
2017-09-03T10:00:40.406Z,56.38
2017-09-03T10:03:09.500Z,55.88
2017-09-03T10:05:38.542Z,55.27
2017-09-03T10:08:07.681Z,56.57
2017-09-03T10:10:36.745Z,53.73
2017-09-03T10:13:05.844Z,52.77
2017-09-03T10:15:34.906Z,57.08
2017-09-03T10:18:04.012Z,53.61
2017-09-03T10:20:33.071Z,54.80
2017-09-03T10:23:02.178Z,53.54
2017-09-03T10:25:31.208Z,54.43
2017-09-03T10:28:00.301Z,53.72
2017-09-03T10:30:29.402Z,52.43
2017-09-03T10:32:58.489Z,48.64
2017-09-03T10:35:27.588Z,50.61
2017-09-03T10:37:56.612Z,52.81
2017-09-03T10:40:32.876Z,54.03
2017-09-03T10:43:10.584Z,49.26
2017-09-03T10:45:41.831Z,51.78
2017-09-03T10:48:12.334Z,51.71
2017-09-03T10:50:44.396Z,51.81
2017-09-03T10:53:13.472Z,49.59
2017-09-03T10:55:45.592Z,50.17
2017-09-03T10:58:15.554Z,49.74
2017-09-03T11:00:44.592Z,53.02
2017-09-03T11:03:15.366Z,51.41
2017-09-03T11:05:44.884Z,52.89
2017-09-03T11:08:15.805Z,50.61
2017-09-03T11:10:44.867Z,47.04
2017-09-03T11:13:13.972Z,49.39
2017-09-03T11:15:44.440Z,50.63
2017-09-03T11:18:15.141Z,48.79
2017-09-03T11:20:45.542Z,48.83
2017-09-03T11:23:15.448Z,48.15
2017-09-03T11:25:44.885Z,47.25
2017-09-03T11:28:13.955Z,48.72
2017-09-03T11:30:43.039Z,47.72
2017-09-03T11:33:14.358Z,47.59
2017-09-03T11:35:43.742Z,49.69
2017-09-03T11:38:12.917Z,48.99
2017-09-03T11:40:41.997Z,48.24
2017-09-03T11:43:12.341Z,46.99
2017-09-03T11:45:41.406Z,48.23
2017-09-03T11:48:10.807Z,49.51
2017-09-03T11:50:40.206Z,45.86
2017-09-03T11:53:09.257Z,45.86
2017-09-03T11:55:38.329Z,46.97
2017-09-03T11:58:07.457Z,48.32
2017-09-03T12:00:36.512Z,46.87
2017-09-03T12:03:05.642Z,47.61
2017-09-03T12:05:34.689Z,49.52
2017-09-03T12:08:03.752Z,49.53
2017-09-03T12:10:32.826Z,49.19
2017-09-03T12:13:01.907Z,45.97
2017-09-03T12:15:30.974Z,48.25
2017-09-03T12:18:00.210Z,46.87
2017-09-03T12:20:29.305Z,48.57
2017-09-03T12:22:58.329Z,46.14
2017-09-03T12:25:27.419Z,48.52
2017-09-03T12:27:56.497Z,49.21
2017-09-03T12:30:25.561Z,49.70
2017-09-03T12:32:54.643Z,49.47
2017-09-03T12:35:23.737Z,46.95
2017-09-03T12:37:52.804Z,46.73
2017-09-03T12:40:21.860Z,47.30
2017-09-03T12:42:51.024Z,47.29
2017-09-03T12:45:20.146Z,48.69
2017-09-03T12:47:49.229Z,49.17
2017-09-03T12:50:18.283Z,46.00
2017-09-03T12:52:47.378Z,46.76
2017-09-03T12:55:16.618Z,48.19
2017-09-03T12:57:45.957Z,48.39
2017-09-03T13:00:15.075Z,48.35
2017-09-03T13:02:44.317Z,50.13
2017-09-03T13:05:13.464Z,50.98
2017-09-03T13:07:42.568Z,49.57
2017-09-03T13:10:11.676Z,48.40
2017-09-03T13:12:40.740Z,48.50
2017-09-03T13:15:09.823Z,48.49
2017-09-03T13:17:38.894Z,49.15
2017-09-03T13:20:07.956Z,47.85
2017-09-03T13:22:37.176Z,49.24
2017-09-03T13:25:06.257Z,47.88
2017-09-03T13:27:35.314Z,48.91
2017-09-03T13:30:04.654Z,49.21
2017-09-03T13:32:33.757Z,49.72
2017-09-03T13:35:03.646Z,49.36
2017-09-03T13:37:32.712Z,48.90
2017-09-03T13:40:01.843Z,48.92
2017-09-03T13:42:31.037Z,47.13
2017-09-03T13:45:00.125Z,48.14
2017-09-03T13:47:29.216Z,47.67
2017-09-03T13:49:58.255Z,46.70
2017-09-03T13:52:27.335Z,47.83
2017-09-03T13:54:56.419Z,48.44
2017-09-03T13:57:25.602Z,48.34
2017-09-03T13:59:54.907Z,49.45
2017-09-03T14:02:23.981Z,50.54
2017-09-03T14:04:53.017Z,50.50
2017-09-03T14:07:22.069Z,51.00
2017-09-03T14:09:51.120Z,49.21
2017-09-03T14:12:20.944Z,47.87
2017-09-03T14:14:50.009Z,48.70
2017-09-03T14:17:19.124Z,47.71
2017-09-03T14:19:48.178Z,49.22
2017-09-03T14:22:17.267Z,48.21
2017-09-03T14:24:46.631Z,48.61
2017-09-03T14:27:15.686Z,48.78
2017-09-03T14:29:44.778Z,50.51
2017-09-03T14:32:13.838Z,48.07
2017-09-03T14:34:42.936Z,48.76
2017-09-03T14:37:12.017Z,48.15
2017-09-03T14:39:41.097Z,47.95
2017-09-03T14:42:10.567Z,49.53
2017-09-03T14:44:39.629Z,49.42
2017-09-03T14:47:09.078Z,49.67
2017-09-03T14:49:38.169Z,47.45
2017-09-03T14:52:07.267Z,47.42
2017-09-03T14:54:36.370Z,46.94
2017-09-03T14:57:05.767Z,46.57
2017-09-03T14:59:34.796Z,45.53
2017-09-03T15:02:03.906Z,46.20
2017-09-03T15:04:32.964Z,46.35
2017-09-03T15:07:02.041Z,46.38
2017-09-03T15:10:06.060Z,48.64
2017-09-03T15:12:36.099Z,48.60
2017-09-03T15:15:05.144Z,48.41
2017-09-03T15:17:34.220Z,48.02
2017-09-03T15:20:03.670Z,48.54
2017-09-03T15:22:32.771Z,47.26
2017-09-03T15:25:01.805Z,44.32
2017-09-03T15:27:30.947Z,44.04
2017-09-03T15:30:00.045Z,44.36
2017-09-03T15:32:29.139Z,44.53
2017-09-03T15:34:59.810Z,46.28
2017-09-03T15:37:29.455Z,45.41
2017-09-03T15:39:58.506Z,45.73
2017-09-03T15:42:27.616Z,46.23
2017-09-03T15:44:56.774Z,47.05
2017-09-03T15:47:25.837Z,46.91
2017-09-03T15:49:54.925Z,45.44
2017-09-03T15:52:24.061Z,47.21
2017-09-03T15:54:54.021Z,47.59
2017-09-03T15:57:23.677Z,48.43
2017-09-03T15:59:52.764Z,47.23
2017-09-03T16:02:21.873Z,46.73
2017-09-03T16:04:50.941Z,47.70
2017-09-03T16:07:20.032Z,47.27
2017-09-03T16:09:49.076Z,47.83
2017-09-03T16:12:18.183Z,47.13
2017-09-03T16:14:47.264Z,47.62
2017-09-03T16:17:16.357Z,48.34
2017-09-03T16:19:45.432Z,48.07
2017-09-03T16:22:14.525Z,48.06
2017-09-03T16:24:43.573Z,47.49
2017-09-03T16:27:12.909Z,47.53
2017-09-03T16:29:42.001Z,47.23
2017-09-03T16:32:11.241Z,47.84
2017-09-03T16:34:40.306Z,48.20
2017-09-03T16:37:09.733Z,49.06
2017-09-03T16:39:38.785Z,48.24
2017-09-03T16:42:07.863Z,48.49
2017-09-03T16:44:36.960Z,48.72
2017-09-03T16:47:06.099Z,48.64
2017-09-03T16:49:35.177Z,49.46
2017-09-03T16:52:04.822Z,49.19
2017-09-03T16:54:33.926Z,49.24
2017-09-03T16:57:03.015Z,49.58
2017-09-03T16:59:32.149Z,50.83
2017-09-03T17:02:01.261Z,51.07
2017-09-03T17:04:30.356Z,50.60
2017-09-03T17:06:59.678Z,50.54
2017-09-03T17:09:29.727Z,51.38
2017-09-03T17:11:59.117Z,52.30
2017-09-03T17:14:28.188Z,52.45
2017-09-03T17:16:57.277Z,52.63
2017-09-03T17:19:26.376Z,53.50
2017-09-03T17:21:55.467Z,54.62
2017-09-03T17:24:26.248Z,54.96
2017-09-03T17:26:55.322Z,55.77
2017-09-03T17:29:24.403Z,56.04
2017-09-03T17:31:56.119Z,56.47
2017-09-03T17:34:29.663Z,55.91
2017-09-03T17:37:08.660Z,55.76
2017-09-03T17:39:39.346Z,56.88
2017-09-03T17:42:08.480Z,57.31
2017-09-03T17:44:37.847Z,57.32
2017-09-03T17:47:07.058Z,58.06
2017-09-03T17:49:36.119Z,58.44
2017-09-03T17:52:05.207Z,59.04
2017-09-03T17:54:34.334Z,59.47
2017-09-03T17:57:03.427Z,59.97
2017-09-03T17:59:32.597Z,60.48
2017-09-03T18:02:02.290Z,60.60
2017-09-03T18:04:33.459Z,60.71
2017-09-03T18:07:03.456Z,61.04
2017-09-03T18:09:32.537Z,61.56
2017-09-03T18:12:01.587Z,61.96
2017-09-03T18:14:30.688Z,62.59
2017-09-03T18:16:59.744Z,63.00
2017-09-03T18:19:28.853Z,63.65
2017-09-03T18:21:57.950Z,63.46
2017-09-03T18:24:27.019Z,63.71
2017-09-03T18:26:56.092Z,63.68
2017-09-03T18:29:25.295Z,63.99
2017-09-03T18:31:55.678Z,64.50
2017-09-03T18:34:24.795Z,64.71
2017-09-03T18:36:55.116Z,65.15
2017-09-03T18:39:30.646Z,66.19
2017-09-03T18:41:59.701Z,66.13
2017-09-03T18:44:29.166Z,66.21
2017-09-03T18:46:58.252Z,66.62
2017-09-03T18:49:38.088Z,66.86
2017-09-03T18:52:11.407Z,66.74
2017-09-03T18:54:51.332Z,67.09
2017-09-03T18:57:22.902Z,68.10
2017-09-03T18:59:52.896Z,66.96
2017-09-03T19:02:23.090Z,67.16
2017-09-03T19:04:53.506Z,67.82
2017-09-03T19:07:22.689Z,68.04
2017-09-03T19:09:51.808Z,68.71
2017-09-03T19:12:21.556Z,68.62
2017-09-03T19:14:52.125Z,68.50
2017-09-03T19:17:21.176Z,68.63
2017-09-03T19:19:51.507Z,69.54
2017-09-03T19:22:20.765Z,69.20
2017-09-03T19:24:49.877Z,69.35
2017-09-03T19:27:19.275Z,69.47
2017-09-03T19:29:48.401Z,70.18
2017-09-03T19:32:17.517Z,70.08
2017-09-03T19:34:46.660Z,70.36
2017-09-03T19:37:15.776Z,70.24
2017-09-03T19:39:45.189Z,70.17
2017-09-03T19:42:14.265Z,70.88
2017-09-03T19:44:43.699Z,70.91
2017-09-03T19:47:12.779Z,70.81
2017-09-03T19:49:41.889Z,71.03
2017-09-03T19:52:11.285Z,70.86
2017-09-03T19:54:40.613Z,70.82
2017-09-03T19:57:09.742Z,71.11
2017-09-03T19:59:38.808Z,71.45
2017-09-03T20:02:07.995Z,71.34
2017-09-03T20:04:37.695Z,71.25
2017-09-03T20:07:06.789Z,71.63
2017-09-03T20:09:35.876Z,72.13
2017-09-03T20:12:05.007Z,71.94
2017-09-03T20:14:34.659Z,71.90
2017-09-03T20:17:03.765Z,71.88
2017-09-03T20:19:32.839Z,71.85
2017-09-03T20:22:01.909Z,71.95
2017-09-03T20:24:30.974Z,71.71
2017-09-03T20:27:00.031Z,71.46
2017-09-03T20:29:29.099Z,71.55
2017-09-03T20:31:58.144Z,71.61
2017-09-03T20:34:27.214Z,71.40
2017-09-03T20:36:56.530Z,71.75
2017-09-03T20:39:25.585Z,71.85
2017-09-03T20:41:54.680Z,71.61
2017-09-03T20:44:23.736Z,71.36
2017-09-03T20:46:52.840Z,71.56
2017-09-03T20:49:21.969Z,71.14
2017-09-03T20:51:51.089Z,71.35
2017-09-03T20:54:20.533Z,70.87
2017-09-03T20:56:49.610Z,71.58
2017-09-03T20:59:18.662Z,71.47
2017-09-03T21:01:47.765Z,71.43
2017-09-03T21:04:16.840Z,71.37
2017-09-03T21:06:45.902Z,71.17
2017-09-03T21:09:15.160Z,71.61
2017-09-03T21:11:44.577Z,71.63
2017-09-03T21:14:13.611Z,71.80
2017-09-03T21:16:42.689Z,71.70
2017-09-03T21:19:11.812Z,72.40
2017-09-03T21:21:40.849Z,72.06
2017-09-03T21:24:09.918Z,72.57
2017-09-03T21:26:38.988Z,72.39
2017-09-03T21:29:08.077Z,72.34
2017-09-03T21:31:37.153Z,72.56
2017-09-03T21:34:06.257Z,72.48
2017-09-03T21:36:35.309Z,72.27
2017-09-03T21:39:04.380Z,72.56
2017-09-03T21:41:33.449Z,73.00
2017-09-03T21:44:02.527Z,73.12
2017-09-03T21:46:31.609Z,72.88
2017-09-03T21:49:02.530Z,73.44
2017-09-03T21:51:32.561Z,73.30
2017-09-03T21:54:01.643Z,73.21
2017-09-03T21:56:30.702Z,73.26
2017-09-03T21:58:59.785Z,73.68
2017-09-03T22:01:28.837Z,73.22
2017-09-03T22:03:57.930Z,73.52
2017-09-03T22:06:27.016Z,73.76
2017-09-03T22:08:56.129Z,74.11
2017-09-03T22:11:26.534Z,74.31
2017-09-03T22:13:55.985Z,74.12
2017-09-03T22:16:25.091Z,74.35
2017-09-03T22:18:54.180Z,74.44
2017-09-03T22:21:23.216Z,74.73
2017-09-03T22:23:52.289Z,74.97
2017-09-03T22:26:21.374Z,74.94
2017-09-03T22:28:51.228Z,75.03
2017-09-03T22:31:20.275Z,75.14
2017-09-03T22:33:49.368Z,75.30
2017-09-03T22:36:18.427Z,75.42
2017-09-03T22:38:47.519Z,75.65
2017-09-03T22:41:17.227Z,75.94
2017-09-03T22:43:46.301Z,75.93
2017-09-03T22:46:15.383Z,76.05
2017-09-03T22:48:44.431Z,75.91
2017-09-03T22:51:13.505Z,76.46
2017-09-03T22:53:42.568Z,76.27
2017-09-03T22:56:11.616Z,76.55
2017-09-03T22:58:40.677Z,76.66
2017-09-03T23:01:09.756Z,76.86
2017-09-03T23:03:38.801Z,76.82
2017-09-03T23:06:07.861Z,77.14
2017-09-03T23:08:36.972Z,77.45
2017-09-03T23:11:06.218Z,77.37
2017-09-03T23:13:35.266Z,77.72
2017-09-03T23:16:04.341Z,77.72
2017-09-03T23:18:33.412Z,77.62
2017-09-03T23:21:02.495Z,77.44
2017-09-03T23:23:31.527Z,77.48
2017-09-03T23:26:00.579Z,77.58
2017-09-03T23:28:29.629Z,77.66
2017-09-03T23:30:58.730Z,77.40
2017-09-03T23:33:28.042Z,77.41
2017-09-03T23:35:57.365Z,77.59
2017-09-03T23:38:26.458Z,77.81
2017-09-03T23:40:55.517Z,77.63
2017-09-03T23:43:24.579Z,77.29
2017-09-03T23:45:53.657Z,77.64
2017-09-03T23:48:22.719Z,77.47
2017-09-03T23:50:51.788Z,77.54
2017-09-03T23:53:20.821Z,77.35
2017-09-03T23:55:49.916Z,77.15
2017-09-03T23:58:18.991Z,77.60
